Fairfield, Iowa
Current Conditions -  °F | °C
As of 6:15 PM on Wednesday 26 Nov 2014 (Local Time) from KFFL Reporting Station
Light Snow Light Snow  
Wind Chill: 17°   Ceiling: 200
Heat Index: 28°   Visibility: 1.5mi
Dew Point: 27°   Wind: 14mph
Humidity: 93%   Direction: 20°NNE
Pressure: 30.15"   Gusts: NA
Location:  41.01°N, 91.96°W
Report Text: KFFL 270015Z AUTO 02012KT 1 1/2SM -SN OVC002 M02/M03 A3015 RMK AO2
Loading
Personal Weather Stations






























Interactive Weather Map New forecast layout! Learn more

10-Day Weather Forecast

Advertisements
Track Severe Weather on mobile